Terminal Aerodrome Forecast
Issued by NWS Bismarck, ND

Home | Current Version | Previous Version | Graphics & Text | Print | Product List | Glossary On
Versions: 1 2 3 4 5 6 7 8 9 10 11 12 13 14 15 16 17 18 19 20 21 22 23 24
000
FTUS43 KBIS 260700 AAA
TAFBIS
TAF AMD
KBIS 260713Z 2607/2706 35009KT P6SM OVC013
      TEMPO 2609/2613 -SHSN SCT015 OVC025
     FM261300 33008KT P6SM BKN025 OVC035
     FM261600 32006KT P6SM SCT030 SCT220
     FM270000 VRB03KT P6SM SCT050=

USA.gov is the U.S. government's official web portal to all federal, state and local government web resources and services.